Time;durP1;ratioP1;P1;durP2;ratioP2;P2;SDS_P1;SDS_P2;PMS_P1;PMS_P2;Temp;Humidity;BMP_temperature;BMP_pressure;BME280_temperature;BME280_humidity;BME280_pressure;Samples;Min_cycle;Max_cycle;Signal;HPM_P1;HPM_P2
2023/03/18 00:00:49;;;;;;;12.67;9.03;;;8.20;99.90;;;;;;5042324;28;20712;-49
2023/03/18 00:03:16;;;;;;;12.70;10.37;;;8.20;99.90;;;;;;5046829;28;20662;-47
2023/03/18 00:05:44;;;;;;;11.77;9.70;;;8.20;99.90;;;;;;5032687;28;20197;-46
2023/03/18 00:08:11;;;;;;;9.70;8.43;;;8.20;99.90;;;;;;5033333;28;20690;-46
2023/03/18 00:10:40;;;;;;;10.87;8.87;;;8.10;99.90;;;;;;5040880;28;20220;-47
2023/03/18 00:13:07;;;;;;;10.57;7.80;;;8.10;99.90;;;;;;5044893;28;20265;-47
2023/03/18 00:15:34;;;;;;;11.10;8.67;;;8.00;99.90;;;;;;5030971;28;20201;-46
2023/03/18 00:18:01;;;;;;;9.83;8.70;;;7.90;99.90;;;;;;5051238;28;20199;-46
2023/03/18 00:20:38;;;;;;;9.20;7.70;;;7.90;99.90;;;;;;5046402;28;20201;-47
2023/03/18 00:23:07;;;;;;;13.37;8.47;;;7.80;99.90;;;;;;5033211;28;20259;-48
2023/03/18 00:25:34;;;;;;;9.73;8.40;;;7.80;99.90;;;;;;5031641;28;20208;-47
2023/03/18 00:28:03;;;;;;;10.03;7.83;;;7.70;99.90;;;;;;5039318;28;20291;-46
2023/03/18 00:30:30;;;;;;;12.73;9.13;;;7.70;99.90;;;;;;5040663;28;20219;-46
2023/03/18 00:32:57;;;;;;;11.77;8.47;;;7.70;99.90;;;;;;5039850;28;20222;-47
2023/03/18 00:35:26;;;;;;;15.27;10.10;;;7.60;99.90;;;;;;5047938;28;20261;-48
2023/03/18 00:37:57;;;;;;;11.67;8.57;;;7.60;99.90;;;;;;5036764;28;20207;-47
2023/03/18 00:40:28;;;;;;;13.60;8.47;;;7.60;99.90;;;;;;5042291;28;20293;-47
2023/03/18 00:43:06;;;;;;;9.63;8.73;;;7.50;99.90;;;;;;5038838;28;20225;-47
2023/03/18 00:45:37;;;;;;;10.30;8.30;;;7.50;99.90;;;;;;5044226;28;20197;-48
2023/03/18 00:48:06;;;;;;;10.60;8.03;;;7.50;99.90;;;;;;5052224;28;20218;-48
2023/03/18 00:50:33;;;;;;;9.53;8.10;;;7.40;99.90;;;;;;5042372;28;20216;-47
2023/03/18 00:53:00;;;;;;;10.70;7.90;;;7.40;99.90;;;;;;5039895;28;20230;-48
2023/03/18 00:55:27;;;;;;;12.27;9.17;;;7.40;99.90;;;;;;5031143;28;20611;-46
2023/03/18 00:57:55;;;;;;;11.27;9.27;;;7.30;99.90;;;;;;5039240;28;20564;-47
2023/03/18 01:00:24;;;;;;;14.97;9.40;;;7.30;99.90;;;;;;5038449;28;20254;-46
2023/03/18 01:02:53;;;;;;;11.53;9.47;;;7.30;99.90;;;;;;5038178;28;20326;-48
2023/03/18 01:05:20;;;;;;;12.97;9.00;;;7.20;99.90;;;;;;5031320;28;20198;-47
2023/03/18 01:07:47;;;;;;;10.97;8.30;;;7.20;99.90;;;;;;5050602;28;20287;-47
2023/03/18 01:10:15;;;;;;;10.50;8.50;;;7.10;99.90;;;;;;5034689;28;20224;-47
2023/03/18 01:12:45;;;;;;;12.73;7.93;;;7.20;99.90;;;;;;5030229;28;20281;-47
2023/03/18 01:15:15;;;;;;;16.30;8.90;;;7.20;99.90;;;;;;5044286;28;20580;-47
2023/03/18 01:17:43;;;;;;;12.20;9.73;;;7.20;99.90;;;;;;5044446;28;20666;-48
2023/03/18 01:20:13;;;;;;;9.30;8.30;;;7.10;99.90;;;;;;5040449;28;20444;-46
2023/03/18 01:22:41;;;;;;;9.43;8.50;;;7.10;99.90;;;;;;5047806;28;20219;-47
2023/03/18 01:25:09;;;;;;;13.00;8.47;;;7.10;99.90;;;;;;5056485;28;20203;-47
2023/03/18 01:27:36;;;;;;;12.10;9.37;;;7.10;99.90;;;;;;5044843;28;20285;-47
2023/03/18 01:30:03;;;;;;;11.93;9.27;;;7.00;99.90;;;;;;5036710;28;20744;-49
2023/03/18 01:32:30;;;;;;;11.30;8.93;;;7.00;99.90;;;;;;5055623;28;20219;-47
2023/03/18 01:34:58;;;;;;;13.10;9.37;;;7.00;99.90;;;;;;5055821;28;20199;-47
2023/03/18 01:37:27;;;;;;;12.43;9.30;;;7.00;99.90;;;;;;5055648;28;20206;-46
2023/03/18 01:39:54;;;;;;;11.53;9.43;;;7.00;99.90;;;;;;5036791;28;20287;-47
2023/03/18 01:42:21;;;;;;;13.10;9.47;;;7.00;99.90;;;;;;5033559;28;20226;-46
2023/03/18 01:44:49;;;;;;;14.57;9.90;;;7.00;99.90;;;;;;5044706;28;20202;-46
2023/03/18 01:47:16;;;;;;;13.70;10.00;;;6.90;99.90;;;;;;5038392;28;20194;-46
2023/03/18 01:49:47;;;;;;;11.77;9.20;;;6.90;99.90;;;;;;5035402;28;20220;-48
2023/03/18 01:52:17;;;;;;;13.47;9.97;;;6.80;99.90;;;;;;5043635;28;20231;-47
2023/03/18 01:54:52;;;;;;;12.23;9.03;;;6.80;99.90;;;;;;5042557;28;20203;-47
2023/03/18 01:57:20;;;;;;;14.37;10.53;;;6.80;99.90;;;;;;5034276;28;20215;-46
2023/03/18 01:59:50;;;;;;;15.57;9.83;;;6.70;99.90;;;;;;5041117;28;20192;-47
2023/03/18 02:02:17;;;;;;;17.23;11.70;;;6.70;99.90;;;;;;5043251;28;20216;-47
2023/03/18 02:04:49;;;;;;;14.17;9.97;;;6.60;99.90;;;;;;5038799;28;20242;-47
2023/03/18 02:07:17;;;;;;;15.60;9.83;;;6.60;99.90;;;;;;5040965;28;20198;-47
2023/03/18 02:09:47;;;;;;;17.97;11.03;;;6.50;99.90;;;;;;5047066;28;20274;-46
2023/03/18 02:12:19;;;;;;;15.00;12.50;;;6.50;99.90;;;;;;5038343;28;20229;-46
2023/03/18 02:14:45;;;;;;;15.07;12.03;;;6.50;99.90;;;;;;5042898;28;20627;-49
2023/03/18 02:17:16;;;;;;;17.33;11.43;;;6.50;99.90;;;;;;5042936;28;20620;-47
2023/03/18 02:19:58;;;;;;;13.70;10.47;;;6.60;99.90;;;;;;5040855;28;20201;-47
2023/03/18 02:22:29;;;;;;;16.07;11.00;;;6.60;99.90;;;;;;5041516;28;20596;-46
2023/03/18 02:25:19;;;;;;;16.53;11.37;;;6.60;99.90;;;;;;5034893;28;20266;-47
2023/03/18 02:27:54;;;;;;;16.17;11.67;;;6.50;99.90;;;;;;5034150;28;20208;-47
2023/03/18 02:30:25;;;;;;;12.83;10.20;;;6.40;99.90;;;;;;5037216;28;20223;-46
2023/03/18 02:32:58;;;;;;;15.97;11.90;;;6.40;99.90;;;;;;5034497;28;20221;-46
2023/03/18 02:35:26;;;;;;;17.47;11.93;;;6.40;99.90;;;;;;5032245;28;20582;-46
2023/03/18 02:37:53;;;;;;;18.20;12.97;;;6.40;99.90;;;;;;5037139;28;20576;-47
2023/03/18 02:40:23;;;;;;;15.70;11.80;;;6.30;99.90;;;;;;5038165;28;20200;-47
2023/03/18 02:42:52;;;;;;;14.23;10.77;;;6.30;99.90;;;;;;5040104;28;20225;-47
2023/03/18 02:45:33;;;;;;;14.67;10.80;;;6.30;99.90;;;;;;5039256;28;20550;-47
2023/03/18 02:48:07;;;;;;;12.73;10.40;;;6.30;99.90;;;;;;5034329;28;20258;-47
2023/03/18 02:50:33;;;;;;;14.97;9.77;;;6.40;99.90;;;;;;5036511;28;20255;-47
2023/03/18 02:53:02;;;;;;;14.67;10.10;;;6.50;99.90;;;;;;5037781;28;20220;-46
2023/03/18 02:55:29;;;;;;;16.13;10.40;;;6.50;99.90;;;;;;5041925;28;20206;-48
2023/03/18 02:57:58;;;;;;;17.07;10.17;;;6.40;99.90;;;;;;5037122;28;20620;-47
2023/03/18 03:00:25;;;;;;;11.83;9.90;;;6.40;99.90;;;;;;5035930;28;20195;-46
2023/03/18 03:02:56;;;;;;;14.60;9.73;;;6.40;99.90;;;;;;5035370;28;20720;-46
2023/03/18 03:05:23;;;;;;;13.60;9.47;;;6.40;99.90;;;;;;5038582;28;20279;-45
2023/03/18 03:07:50;;;;;;;16.13;9.10;;;6.30;99.90;;;;;;5030846;28;20211;-47
2023/03/18 03:10:17;;;;;;;14.80;9.70;;;6.30;99.90;;;;;;5031068;28;20316;-47
2023/03/18 03:12:44;;;;;;;9.90;8.27;;;6.40;99.90;;;;;;5043424;28;20223;-47
2023/03/18 03:15:13;;;;;;;12.40;8.80;;;6.40;99.90;;;;;;5051159;28;20234;-48
2023/03/18 03:17:41;;;;;;;11.73;8.40;;;6.40;99.90;;;;;;5034703;28;20246;-48
2023/03/18 03:20:09;;;;;;;8.23;7.40;;;6.40;99.90;;;;;;5032346;28;20196;-48
2023/03/18 03:22:36;;;;;;;11.83;8.73;;;6.30;99.90;;;;;;5041623;28;20220;-46
2023/03/18 03:25:04;;;;;;;10.00;8.23;;;6.30;99.90;;;;;;5030989;28;20200;-46
2023/03/18 03:27:31;;;;;;;10.67;8.27;;;6.30;99.90;;;;;;5029769;28;20284;-47
2023/03/18 03:29:58;;;;;;;9.10;7.40;;;6.30;99.90;;;;;;5024152;28;20204;-47
2023/03/18 03:32:27;;;;;;;8.00;6.97;;;6.30;99.90;;;;;;5041433;28;20216;-47
2023/03/18 03:34:54;;;;;;;9.93;8.37;;;6.30;99.90;;;;;;5032324;28;20681;-48
2023/03/18 03:37:21;;;;;;;13.67;9.53;;;6.40;99.90;;;;;;5041453;28;20203;-46
2023/03/18 03:39:49;;;;;;;10.60;9.57;;;6.50;99.90;;;;;;5038944;28;20207;-47
2023/03/18 03:42:16;;;;;;;12.57;9.43;;;6.40;99.90;;;;;;5032108;28;20731;-46
2023/03/18 03:44:43;;;;;;;16.57;10.07;;;6.30;99.90;;;;;;5042733;28;20670;-46
2023/03/18 03:47:10;;;;;;;11.50;8.93;;;6.30;99.90;;;;;;5052956;28;20212;-46
2023/03/18 03:49:39;;;;;;;12.33;9.90;;;6.20;99.90;;;;;;5044787;28;20201;-48
2023/03/18 03:52:07;;;;;;;11.27;9.20;;;6.10;99.90;;;;;;5037795;28;20314;-47
2023/03/18 03:54:34;;;;;;;10.17;9.00;;;6.00;99.90;;;;;;5033038;28;20620;-47
2023/03/18 03:57:00;;;;;;;12.63;9.27;;;6.00;99.90;;;;;;5033121;28;20200;-47
2023/03/18 03:59:28;;;;;;;13.33;9.07;;;6.00;99.90;;;;;;5029308;28;20197;-46
2023/03/18 04:01:54;;;;;;;11.83;9.13;;;6.00;99.90;;;;;;5032508;28;20212;-46
2023/03/18 04:04:22;;;;;;;10.23;8.77;;;6.00;99.90;;;;;;5031863;28;20636;-47
2023/03/18 04:06:51;;;;;;;14.33;9.30;;;5.90;99.90;;;;;;5043239;28;20255;-47
2023/03/18 04:09:18;;;;;;;12.80;8.23;;;5.90;99.90;;;;;;5046310;28;20612;-45
2023/03/18 04:11:45;;;;;;;10.97;8.17;;;5.90;99.90;;;;;;5041363;28;20251;-47
2023/03/18 04:14:12;;;;;;;8.20;7.30;;;6.00;99.90;;;;;;5044193;28;20628;-47
2023/03/18 04:16:39;;;;;;;9.97;8.50;;;6.00;99.90;;;;;;5036512;28;20249;-47
2023/03/18 04:19:06;;;;;;;9.90;6.90;;;6.00;99.90;;;;;;5037404;28;20203;-47
2023/03/18 04:21:33;;;;;;;10.13;7.80;;;6.00;99.90;;;;;;5040428;28;20261;-46
2023/03/18 04:24:02;;;;;;;11.33;8.60;;;6.00;99.90;;;;;;5032469;28;20736;-48
2023/03/18 04:26:30;;;;;;;9.20;7.60;;;6.10;99.90;;;;;;5039090;28;20204;-45
2023/03/18 04:28:57;;;;;;;9.10;7.70;;;6.00;99.90;;;;;;5036119;28;20758;-46
2023/03/18 04:31:24;;;;;;;12.73;8.67;;;6.10;99.90;;;;;;5027697;28;20223;-47
2023/03/18 04:33:51;;;;;;;8.70;7.23;;;6.10;99.90;;;;;;5034323;28;20212;-45
2023/03/18 04:36:18;;;;;;;10.20;8.27;;;6.00;99.90;;;;;;5037522;28;20720;-46
2023/03/18 04:38:45;;;;;;;11.43;7.63;;;6.00;99.90;;;;;;5031317;28;20693;-46
2023/03/18 04:41:13;;;;;;;9.20;7.97;;;6.00;99.90;;;;;;5039133;28;20212;-48
2023/03/18 04:43:40;;;;;;;12.07;8.63;;;6.00;99.90;;;;;;5039697;28;20265;-48
2023/03/18 04:46:07;;;;;;;8.97;7.23;;;6.10;99.90;;;;;;5043588;28;20651;-46
2023/03/18 04:48:34;;;;;;;11.10;8.37;;;6.20;99.90;;;;;;5032503;28;20673;-46
2023/03/18 04:51:01;;;;;;;10.03;8.13;;;6.40;99.90;;;;;;5026875;28;20215;-45
2023/03/18 04:53:28;;;;;;;9.37;8.37;;;6.30;99.90;;;;;;5039899;28;20201;-47
2023/03/18 04:55:55;;;;;;;12.40;7.67;;;6.30;99.90;;;;;;5052009;28;20755;-47
2023/03/18 04:58:24;;;;;;;8.83;6.73;;;6.10;99.90;;;;;;5051699;28;20234;-45
2023/03/18 05:00:51;;;;;;;9.67;7.23;;;6.10;99.90;;;;;;5043972;28;20200;-46
2023/03/18 05:03:18;;;;;;;8.90;7.17;;;6.00;99.90;;;;;;5029761;28;20227;-47
2023/03/18 05:05:45;;;;;;;12.73;8.00;;;6.10;99.90;;;;;;5036306;28;20201;-46
2023/03/18 05:08:13;;;;;;;8.17;7.33;;;6.10;99.90;;;;;;5036317;28;20199;-48
2023/03/18 05:10:40;;;;;;;8.00;7.23;;;6.00;99.90;;;;;;5033818;28;20217;-48
2023/03/18 05:13:08;;;;;;;8.00;7.13;;;6.00;99.90;;;;;;5035460;28;20285;-47
2023/03/18 05:15:36;;;;;;;9.10;6.90;;;5.90;99.90;;;;;;5034797;28;20226;-48
2023/03/18 05:18:04;;;;;;;9.27;7.87;;;5.80;99.90;;;;;;5039279;28;20202;-48
2023/03/18 05:20:31;;;;;;;8.80;6.77;;;5.80;99.90;;;;;;5037865;28;20200;-48
2023/03/18 05:23:00;;;;;;;11.90;7.67;;;5.70;99.90;;;;;;5032272;28;20233;-45
2023/03/18 05:25:28;;;;;;;8.77;7.83;;;5.70;99.90;;;;;;5037667;28;20199;-46
2023/03/18 05:27:58;;;;;;;8.10;6.90;;;5.70;99.90;;;;;;5041361;28;20661;-47
2023/03/18 05:30:25;;;;;;;8.90;6.73;;;5.70;99.90;;;;;;5042130;28;20204;-47
2023/03/18 05:32:54;;;;;;;11.20;8.27;;;5.70;99.90;;;;;;5039240;28;20284;-48
2023/03/18 05:35:21;;;;;;;13.50;8.83;;;5.70;99.90;;;;;;5033782;28;20250;-46
2023/03/18 05:37:48;;;;;;;9.73;8.30;;;5.70;99.90;;;;;;5027892;28;20232;-45
2023/03/18 05:40:15;;;;;;;12.37;7.77;;;5.80;99.90;;;;;;5037696;28;20202;-47
2023/03/18 05:42:42;;;;;;;13.80;7.80;;;5.80;99.90;;;;;;5033349;28;20219;-47
2023/03/18 05:45:10;;;;;;;12.70;8.47;;;5.80;99.90;;;;;;5031702;28;20204;-47
2023/03/18 05:47:37;;;;;;;14.13;8.23;;;5.90;99.90;;;;;;5034669;28;20205;-47
2023/03/18 05:50:07;;;;;;;11.37;7.90;;;5.80;99.90;;;;;;5046586;28;20198;-47
2023/03/18 05:52:35;;;;;;;10.23;7.57;;;5.80;99.90;;;;;;5046736;28;20302;-47
2023/03/18 05:55:02;;;;;;;11.10;8.83;;;5.70;99.90;;;;;;5031127;28;20212;-48
2023/03/18 05:57:31;;;;;;;10.30;8.10;;;5.70;99.90;;;;;;5031247;28;20256;-46
2023/03/18 05:59:58;;;;;;;9.17;7.70;;;5.70;99.90;;;;;;5038361;28;20345;-47
2023/03/18 06:02:26;;;;;;;12.93;6.80;;;5.80;99.90;;;;;;5040019;28;20217;-47
2023/03/18 06:04:53;;;;;;;9.33;7.13;;;5.80;99.90;;;;;;5042735;28;20238;-48
2023/03/18 06:07:22;;;;;;;10.40;7.03;;;5.90;99.90;;;;;;5049915;28;20257;-47
2023/03/18 06:09:49;;;;;;;6.63;6.03;;;5.90;99.90;;;;;;5050703;28;20258;-46
2023/03/18 06:12:16;;;;;;;6.63;5.70;;;6.00;99.90;;;;;;5038491;28;20220;-47
2023/03/18 06:14:43;;;;;;;8.23;6.37;;;6.10;99.90;;;;;;5044116;28;20231;-47
2023/03/18 06:17:10;;;;;;;7.97;5.53;;;6.30;99.90;;;;;;5045584;28;20620;-47
2023/03/18 06:19:37;;;;;;;7.27;5.13;;;6.40;99.90;;;;;;5041157;28;20212;-48
2023/03/18 06:22:04;;;;;;;7.60;5.33;;;6.50;99.90;;;;;;5042180;28;20620;-46
2023/03/18 06:24:33;;;;;;;8.80;6.30;;;6.50;99.90;;;;;;5036728;28;20659;-47
2023/03/18 06:27:00;;;;;;;8.97;5.40;;;6.80;99.90;;;;;;5033934;28;20196;-48
2023/03/18 06:29:27;;;;;;;7.27;5.40;;;7.00;99.90;;;;;;5032761;28;20200;-47
2023/03/18 06:31:54;;;;;;;7.50;5.67;;;7.20;99.90;;;;;;5037836;28;20286;-47
2023/03/18 06:34:21;;;;;;;8.20;5.77;;;7.40;99.90;;;;;;5033689;28;20670;-48
2023/03/18 06:36:48;;;;;;;9.70;6.07;;;8.00;99.90;;;;;;5039345;28;20216;-46
2023/03/18 06:39:15;;;;;;;8.50;5.47;;;8.50;99.90;;;;;;5043164;28;20203;-46
2023/03/18 06:41:44;;;;;;;6.87;5.30;;;8.80;99.90;;;;;;5034074;28;20221;-47
2023/03/18 06:44:12;;;;;;;7.57;5.27;;;8.90;99.90;;;;;;5032763;28;20236;-47
2023/03/18 06:46:39;;;;;;;6.47;5.77;;;8.80;99.90;;;;;;5041330;28;21053;-47
2023/03/18 06:49:07;;;;;;;7.27;4.60;;;8.60;99.90;;;;;;5044554;28;20659;-47
2023/03/18 06:51:34;;;;;;;5.93;5.43;;;8.50;99.90;;;;;;5034357;28;20232;-47
2023/03/18 06:54:01;;;;;;;5.00;4.33;;;8.60;99.90;;;;;;5033025;28;20200;-47
2023/03/18 06:56:28;;;;;;;6.03;4.83;;;8.80;99.90;;;;;;5039474;28;20257;-47
2023/03/18 06:58:57;;;;;;;6.33;4.93;;;9.20;99.90;;;;;;5033598;28;20201;-47
2023/03/18 07:01:24;;;;;;;6.93;5.20;;;9.50;99.90;;;;;;5029512;28;20257;-49
2023/03/18 07:03:51;;;;;;;10.90;4.70;;;9.90;99.90;;;;;;5028196;28;20817;-47
2023/03/18 07:06:18;;;;;;;5.60;4.73;;;10.20;99.90;;;;;;5045616;28;20200;-47
2023/03/18 07:08:46;;;;;;;5.43;4.27;;;10.20;99.90;;;;;;5041150;28;20258;-48
2023/03/18 07:11:13;;;;;;;13.30;5.13;;;10.10;99.90;;;;;;5039281;28;20220;-46
2023/03/18 07:13:40;;;;;;;7.93;6.03;;;10.20;99.90;;;;;;5050097;28;20204;-47
2023/03/18 07:16:09;;;;;;;8.07;5.73;;;10.40;99.90;;;;;;5037431;28;20202;-47
2023/03/18 07:18:37;;;;;;;9.10;6.87;;;10.50;99.90;;;;;;5034661;28;20200;-45
2023/03/18 07:21:05;;;;;;;9.00;5.93;;;10.70;99.90;;;;;;5036028;28;20295;-47
2023/03/18 07:23:33;;;;;;;7.20;6.50;;;11.00;99.90;;;;;;5040519;28;20737;-48
2023/03/18 07:26:00;;;;;;;7.67;6.77;;;11.00;99.90;;;;;;5035808;28;20203;-47
2023/03/18 07:28:27;;;;;;;8.60;7.30;;;11.00;99.90;;;;;;5033111;28;20254;-47
2023/03/18 07:30:54;;;;;;;9.10;7.07;;;11.00;99.90;;;;;;5044398;28;20257;-48
2023/03/18 07:33:23;;;;;;;8.23;7.20;;;11.10;99.90;;;;;;5033527;28;20219;-47
2023/03/18 07:35:50;;;;;;;11.23;7.73;;;11.40;99.90;;;;;;5045095;28;20200;-47
2023/03/18 07:38:17;;;;;;;10.23;7.60;;;11.80;99.90;;;;;;5045740;28;20204;-47
2023/03/18 07:40:45;;;;;;;15.07;10.23;;;12.00;99.90;;;;;;5040018;28;20705;-47
2023/03/18 07:43:12;;;;;;;10.43;8.00;;;12.50;99.90;;;;;;5044967;28;20562;-48
2023/03/18 07:45:39;;;;;;;11.80;7.90;;;13.00;99.90;;;;;;5027794;28;20212;-46
2023/03/18 07:48:06;;;;;;;11.33;7.93;;;13.30;99.90;;;;;;5031210;28;20274;-48
2023/03/18 07:50:35;;;;;;;7.77;6.63;;;13.80;99.90;;;;;;5038198;28;20197;-46
2023/03/18 07:53:03;;;;;;;6.63;6.00;;;14.50;99.90;;;;;;5032376;28;20256;-46
2023/03/18 07:55:30;;;;;;;9.40;6.17;;;15.00;99.90;;;;;;5018930;28;20341;-47
2023/03/18 07:57:57;;;;;;;7.70;5.67;;;15.20;99.90;;;;;;5025554;28;20268;-47
2023/03/18 08:00:24;;;;;;;8.70;6.70;;;15.50;99.90;;;;;;5028972;28;20198;-47
2023/03/18 08:02:51;;;;;;;7.47;6.57;;;16.10;99.90;;;;;;5028453;28;20218;-47
2023/03/18 08:05:19;;;;;;;13.50;6.97;;;16.60;99.90;;;;;;5033133;28;20677;-47
2023/03/18 08:07:47;;;;;;;8.10;6.13;;;16.90;99.90;;;;;;5030933;28;20291;-48
2023/03/18 08:10:14;;;;;;;7.53;6.43;;;17.00;99.90;;;;;;5029177;28;20201;-47
2023/03/18 08:12:42;;;;;;;7.03;6.33;;;17.10;99.90;;;;;;5029004;28;20230;-47
2023/03/18 08:15:10;;;;;;;8.10;6.80;;;17.00;99.90;;;;;;5033778;28;20202;-46
2023/03/18 08:17:37;;;;;;;8.13;6.20;;;16.80;99.90;;;;;;5027742;28;20198;-47
2023/03/18 08:20:05;;;;;;;6.63;4.60;;;16.90;99.90;;;;;;5029249;28;20286;-47
2023/03/18 08:22:32;;;;;;;5.43;4.93;;;17.00;99.90;;;;;;5028084;28;20222;-47
2023/03/18 08:25:01;;;;;;;5.00;4.70;;;17.60;99.90;;;;;;5027406;28;20203;-47
2023/03/18 08:27:28;;;;;;;5.13;4.83;;;18.20;99.90;;;;;;5028470;28;20203;-47
2023/03/18 08:29:55;;;;;;;6.07;5.23;;;18.60;99.90;;;;;;5031412;28;20207;-48
2023/03/18 08:32:22;;;;;;;5.37;4.87;;;18.70;99.90;;;;;;5025851;28;20635;-47
2023/03/18 08:34:49;;;;;;;7.10;5.10;;;18.90;99.90;;;;;;5034716;28;20272;-47
2023/03/18 08:37:16;;;;;;;5.67;4.43;;;19.40;99.90;;;;;;5043771;28;20228;-47
2023/03/18 08:39:43;;;;;;;7.63;5.67;;;19.40;99.90;;;;;;5049330;28;20201;-47
2023/03/18 08:42:12;;;;;;;8.00;5.70;;;19.50;99.90;;;;;;5052069;28;20244;-46
2023/03/18 08:44:39;;;;;;;7.40;5.60;;;19.70;99.90;;;;;;5041681;28;20206;-47
2023/03/18 08:47:07;;;;;;;7.00;5.00;;;20.10;99.90;;;;;;5044824;28;20288;-46
2023/03/18 08:49:34;;;;;;;5.20;4.83;;;20.50;99.90;;;;;;5051661;28;20213;-48
2023/03/18 08:52:01;;;;;;;5.17;4.47;;;20.50;99.90;;;;;;5042441;28;20317;-48
2023/03/18 08:54:28;;;;;;;6.27;3.13;;;20.80;99.50;;;;;;5047885;28;20284;-48
2023/03/18 08:56:56;;;;;;;3.67;2.73;;;20.60;98.80;;;;;;5051672;28;20259;-47
2023/03/18 08:59:24;;;;;;;3.77;3.33;;;20.80;98.50;;;;;;5051643;28;20201;-48
2023/03/18 09:01:52;;;;;;;3.90;3.70;;;21.10;99.40;;;;;;5045252;28;20347;-48
2023/03/18 09:04:19;;;;;;;4.00;3.70;;;21.20;99.60;;;;;;5046232;28;20198;-48
2023/03/18 09:06:47;;;;;;;5.93;3.77;;;21.50;98.50;;;;;;5051531;28;20970;-48
2023/03/18 09:09:15;;;;;;;4.33;4.03;;;21.30;97.90;;;;;;5033493;28;20212;-49
2023/03/18 09:11:44;;;;;;;5.13;3.93;;;21.70;98.10;;;;;;5031492;28;20223;-47
2023/03/18 09:14:12;;;;;;;4.00;3.33;;;21.70;97.70;;;;;;5031711;28;20213;-48
2023/03/18 09:16:40;;;;;;;2.90;2.60;;;21.90;97.50;;;;;;5039066;28;20200;-47
2023/03/18 09:19:07;;;;;;;3.30;3.10;;;22.10;95.30;;;;;;5044199;28;20255;-48
2023/03/18 09:21:34;;;;;;;5.10;3.27;;;22.50;94.90;;;;;;5051542;28;20252;-48
2023/03/18 09:24:01;;;;;;;2.93;2.80;;;22.40;94.70;;;;;;5051529;28;20229;-47
2023/03/18 09:26:28;;;;;;;3.17;2.80;;;22.30;95.10;;;;;;5051535;28;20255;-48
2023/03/18 09:28:56;;;;;;;3.60;2.93;;;22.20;96.40;;;;;;5051410;28;20209;-47
2023/03/18 09:31:23;;;;;;;2.63;2.40;;;22.00;95.90;;;;;;5051325;28;20228;-48
2023/03/18 09:33:51;;;;;;;3.27;2.97;;;22.00;95.60;;;;;;5041076;28;20226;-47
2023/03/18 09:36:19;;;;;;;3.03;2.87;;;22.00;96.00;;;;;;5046263;28;20198;-47
2023/03/18 09:38:45;;;;;;;3.93;3.10;;;22.10;96.40;;;;;;5055352;28;20202;-46
2023/03/18 09:41:28;;;;;;;1.97;1.83;;;22.60;93.70;;;;;;5054966;28;20225;-48
2023/03/18 09:44:09;;;;;;;2.47;2.27;;;22.40;91.80;;;;;;5055194;28;20291;-47
2023/03/18 09:46:50;;;;;;;2.97;2.20;;;22.60;93.90;;;;;;5055428;28;20205;-48
2023/03/18 09:49:33;;;;;;;3.80;2.20;;;22.90;92.80;;;;;;5049590;28;20194;-48
2023/03/18 09:52:17;;;;;;;2.30;2.20;;;22.30;93.20;;;;;;5035106;28;20273;-48
2023/03/18 09:54:49;;;;;;;2.17;2.00;;;22.60;91.90;;;;;;5035189;28;20261;-48
2023/03/18 09:57:21;;;;;;;2.20;2.10;;;23.10;90.80;;;;;;5035055;28;20248;-47
2023/03/18 09:59:54;;;;;;;2.53;2.33;;;23.60;91.10;;;;;;5034987;28;20206;-47
2023/03/18 10:02:27;;;;;;;2.73;2.63;;;23.30;91.70;;;;;;5034940;28;20229;-48
2023/03/18 10:04:58;;;;;;;3.73;2.10;;;21.90;87.60;;;;;;5034813;28;20206;-48
2023/03/18 10:07:30;;;;;;;2.50;2.23;;;22.70;89.80;;;;;;5041188;28;20198;-47
2023/03/18 10:10:01;;;;;;;2.10;2.00;;;22.50;90.90;;;;;;5046384;28;20194;-48
2023/03/18 10:12:32;;;;;;;1.90;1.80;;;22.80;91.40;;;;;;5054650;28;20593;-47
2023/03/18 10:15:12;;;;;;;2.10;1.90;;;22.90;91.10;;;;;;5054744;28;20202;-48
2023/03/18 10:17:44;;;;;;;3.47;1.67;;;22.90;90.30;;;;;;5046367;28;20667;-48
2023/03/18 10:20:17;;;;;;;2.10;1.63;;;22.90;85.80;;;;;;5048200;28;20204;-48
2023/03/18 10:22:59;;;;;;;1.57;1.57;;;23.20;89.30;;;;;;5054539;28;20640;-48
2023/03/18 10:25:33;;;;;;;2.47;2.27;;;22.50;86.30;;;;;;5034427;28;20214;-47
2023/03/18 10:28:12;;;;;;;2.00;1.80;;;23.10;84.50;;;;;;5031155;28;20457;-47
2023/03/18 10:30:53;;;;;;;2.27;2.27;;;23.30;86.30;;;;;;5031095;28;20575;-48
2023/03/18 10:33:34;;;;;;;1.80;1.70;;;23.30;86.10;;;;;;5038771;28;20214;-48
2023/03/18 10:36:09;;;;;;;5.83;5.33;;;23.00;81.60;;;;;;5028755;28;20285;-47
2023/03/18 10:38:40;;;;;;;6.33;5.77;;;23.20;86.70;;;;;;5033595;28;20736;-46
2023/03/18 10:41:22;;;;;;;7.90;7.20;;;23.10;92.10;;;;;;5034556;28;20203;-47
2023/03/18 10:43:52;;;;;;;8.87;8.17;;;22.20;92.90;;;;;;5032877;28;20289;-48
2023/03/18 10:46:21;;;;;;;7.60;6.90;;;22.30;93.40;;;;;;5039514;28;20690;-47
2023/03/18 10:48:51;;;;;;;8.07;7.30;;;22.20;92.70;;;;;;5041481;28;20308;-48
2023/03/18 10:51:26;;;;;;;8.90;6.33;;;22.10;91.10;;;;;;5033402;28;20226;-47
2023/03/18 10:53:59;;;;;;;10.57;7.60;;;21.40;91.20;;;;;;5033693;28;20637;-47
2023/03/18 10:56:27;;;;;;;6.10;5.50;;;20.70;90.20;;;;;;5031696;28;20211;-48
2023/03/18 10:58:55;;;;;;;8.27;6.73;;;19.70;91.60;;;;;;5033083;28;20202;-47
2023/03/18 11:01:24;;;;;;;8.10;6.50;;;19.10;93.10;;;;;;5035749;28;20219;-47
2023/03/18 11:03:56;;;;;;;9.77;7.23;;;18.90;92.50;;;;;;5032605;28;20568;-47
2023/03/18 11:06:31;;;;;;;8.67;6.73;;;18.90;93.30;;;;;;5040077;28;20703;-46
2023/03/18 11:09:05;;;;;;;7.83;6.07;;;18.30;93.50;;;;;;5025945;28;20256;-47
2023/03/18 11:11:34;;;;;;;7.87;7.07;;;18.40;94.60;;;;;;5031478;28;20226;-47
2023/03/18 11:14:03;;;;;;;9.73;7.47;;;18.50;94.20;;;;;;5031607;28;20218;-47
2023/03/18 11:16:37;;;;;;;11.93;7.67;;;18.20;94.90;;;;;;5044915;28;20199;-48
2023/03/18 11:19:22;;;;;;;11.07;7.83;;;17.70;96.00;;;;;;5022159;28;20206;-46
2023/03/18 11:22:01;;;;;;;9.47;7.70;;;17.20;97.00;;;;;;5046887;28;20222;-47
2023/03/18 11:24:37;;;;;;;7.67;6.30;;;17.20;95.70;;;;;;5039379;28;20218;-47
2023/03/18 11:27:22;;;;;;;8.93;7.13;;;17.10;95.00;;;;;;5030628;28;20608;-48
2023/03/18 11:29:54;;;;;;;10.77;7.33;;;17.30;94.90;;;;;;5030014;28;20252;-47
2023/03/18 11:32:26;;;;;;;9.43;6.30;;;17.30;94.20;;;;;;5031183;28;20345;-47
2023/03/18 11:34:57;;;;;;;12.60;7.47;;;17.40;94.40;;;;;;5037195;28;20202;-46
2023/03/18 11:37:31;;;;;;;8.00;6.80;;;17.60;94.20;;;;;;5036263;28;20689;-46
2023/03/18 11:40:17;;;;;;;14.17;7.50;;;17.70;93.80;;;;;;5030901;28;20568;-47
2023/03/18 11:42:46;;;;;;;7.83;6.03;;;17.70;94.80;;;;;;5039256;28;20217;-46
2023/03/18 11:45:31;;;;;;;11.60;8.17;;;17.70;94.80;;;;;;5037476;28;20263;-48
2023/03/18 11:48:00;;;;;;;11.30;7.10;;;17.70;95.70;;;;;;5029256;28;20755;-47
2023/03/18 11:50:40;;;;;;;12.30;7.10;;;17.60;95.80;;;;;;5031358;28;20202;-46
2023/03/18 11:53:13;;;;;;;8.53;6.17;;;17.70;95.70;;;;;;5033039;28;20689;-46
2023/03/18 11:55:45;;;;;;;9.43;6.47;;;17.50;95.90;;;;;;5039302;28;20282;-46
2023/03/18 11:58:42;;;;;;;9.47;6.43;;;17.50;95.80;;;;;;5029864;28;20202;-46
2023/03/18 12:01:16;;;;;;;8.93;6.10;;;17.40;94.70;;;;;;5029206;28;20194;-46
2023/03/18 12:04:14;;;;;;;10.20;6.20;;;17.30;96.20;;;;;;5031680;28;20224;-46
2023/03/18 12:06:49;;;;;;;8.10;5.97;;;17.20;95.20;;;;;;5039213;28;20672;-46
2023/03/18 12:09:25;;;;;;;11.80;6.40;;;16.90;95.00;;;;;;5026057;28;20293;-45
2023/03/18 12:12:06;;;;;;;10.07;6.90;;;16.80;97.00;;;;;;5031161;28;20222;-46
2023/03/18 12:14:40;;;;;;;7.83;6.00;;;16.90;95.60;;;;;;5034554;28;20222;-47
2023/03/18 12:17:24;;;;;;;8.57;5.87;;;17.00;97.00;;;;;;5030244;28;20208;-46
2023/03/18 12:20:39;;;;;;;10.47;6.30;;;17.20;96.00;;;;;;5029748;28;20617;-46
2023/03/18 12:23:20;;;;;;;10.67;6.57;;;17.40;97.40;;;;;;4944194;28;20300;-46
2023/03/18 12:25:58;;;;;;;9.40;5.87;;;17.30;96.50;;;;;;5015537;28;20199;-49
2023/03/18 12:28:51;;;;;;;9.20;6.27;;;17.30;95.90;;;;;;5028605;28;20244;-46
2023/03/18 12:31:41;;;;;;;11.23;6.80;;;17.40;95.80;;;;;;4986833;28;20222;-45
2023/03/18 12:34:20;;;;;;;10.50;6.40;;;17.40;97.50;;;;;;5012038;28;20226;-46
2023/03/18 12:37:02;;;;;;;10.07;5.80;;;17.40;97.70;;;;;;5027542;28;20289;-48
2023/03/18 12:39:54;;;;;;;7.70;5.60;;;17.40;97.20;;;;;;5038518;28;20226;-47
2023/03/18 12:42:42;;;;;;;8.37;5.23;;;17.10;95.70;;;;;;5048301;28;20265;-47
2023/03/18 12:45:12;;;;;;;7.93;6.53;;;17.20;95.90;;;;;;5032200;28;20643;-48
2023/03/18 12:47:44;;;;;;;9.47;5.93;;;17.40;97.70;;;;;;5031947;28;20268;-49
2023/03/18 12:50:16;;;;;;;8.60;5.17;;;17.50;96.20;;;;;;5031097;28;20272;-49
2023/03/18 12:52:48;;;;;;;6.77;4.60;;;17.70;96.10;;;;;;5045055;28;20287;-46
2023/03/18 12:55:20;;;;;;;8.40;5.50;;;17.60;95.80;;;;;;5031473;28;20731;-49
2023/03/18 12:57:56;;;;;;;7.07;5.73;;;17.60;94.80;;;;;;5031765;28;20333;-46
2023/03/18 13:00:30;;;;;;;9.90;5.90;;;17.70;95.50;;;;;;5028848;28;20199;-46
2023/03/18 13:03:04;;;;;;;7.80;5.77;;;17.70;95.20;;;;;;5036471;28;20233;-47